Maersk Leon — 9V9778 — position and weather

sailwx.info

Track history (hours):
 
Tides and Currents Weather Stations Pressure Air Temp Water Temp Dewpoint Dewpoint Depression Visibility Wind Speed Wind Dir Waves Ship Positions

Maersk Leon

Last reported at 2018-Jul-20 14:00 UTC. Time now 2018-Jul-23 06:10 UTC.
Position N 23°16' E 117°32'.

Length 300 m; draft 10.2 m.

Type: Cargo ship. MMSI: 566405000.

Date/timePositionNaut miles runAvg speedWind from/ knotsBaromVisibWave heightAir tempDewpointWater temp
2018-Jul-20 14:00N 23°16' E 117°32'713.4
2018-Jul-20 13:30N 23°20' E 117°37'713.9
2018-Jul-20 13:00N 23°24' E 117°43'713.9
2018-Jul-20 12:30N 23°28' E 117°49'713.8
2018-Jul-20 12:00N 23°32' E 117°55'713.7
2018-Jul-20 11:30N 23°37' E 118°01'713.7
2018-Jul-20 11:00N 23°41' E 118°07'713.9
2018-Jul-20 10:30N 23°46' E 118°12'714.1
2018-Jul-20 10:00N 23°50' E 118°18'713.8
2018-Jul-20 09:29N 23°55' E 118°24'713.8
2018-Jul-20 08:59N 23°60' E 118°30'713.9
2018-Jul-20 08:30N 24°04' E 118°36'1013.7
2018-Jul-20 07:48N 24°10' E 118°43'413.4
2018-Jul-20 07:30N 24°13' E 118°46'713.5
2018-Jul-20 07:00N 24°18' E 118°51'713.7
2018-Jul-20 06:30N 24°22' E 118°58'713.8
2018-Jul-20 06:00N 24°26' E 119°04'  
2018-Jul-17 08:57N 30°32' E 122°21'810.6
2018-Jul-17 08:09N 30°33' E 122°12'414.4
2018-Jul-17 07:53N 30°35' E 122°08'3 6.0
2018-Jul-17 07:27N 30°36' E 122°05'0 0.0
2018-Jul-16 20:10N 30°36' E 122°05'0 1.4
2018-Jul-16 19:54N 30°36' E 122°05'1 1.6
2018-Jul-16 19:30N 30°37' E 122°04'1 1.5
2018-Jul-16 18:48N 30°36' E 122°05'2 6.2
2018-Jul-16 18:30N 30°35' E 122°07'5 9.2
2018-Jul-16 17:57N 30°34' E 122°12'5 7.9
2018-Jul-16 17:23N 30°33' E 122°18'3 7.6
2018-Jul-16 17:00N 30°33' E 122°21'9 7.5
2018-Jul-16 15:52N 30°29' E 122°30'7 0.2
2018-Jul-15 08:26N 30°32' E 122°23'612.1
2018-Jul-15 07:58N 30°33' E 122°17'713.2
2018-Jul-15 07:26N 30°34' E 122°09'612.6
2018-Jul-15 07:00N 30°37' E 122°03'3 1.7
2018-Jul-15 05:17N 30°39' E 122°01'0 0.0
2018-Jul-15 04:59N 30°39' E 122°01'0 0.0
2018-Jul-15 04:29N 30°39' E 122°01'0 0.0
2018-Jul-15 03:59N 30°39' E 122°01'0 0.0
2018-Jul-15 03:29N 30°39' E 122°01'0 0.0
2018-Jul-15 01:17N 30°39' E 122°01'0 0.0
2018-Jul-15 00:38N 30°39' E 122°01'0 0.0
2018-Jul-15 00:26N 30°39' E 122°01'0 0.0
2018-Jul-14 23:56N 30°39' E 122°01'0 0.0
2018-Jul-14 23:26N 30°39' E 122°01'0 0.0
2018-Jul-14 22:56N 30°39' E 122°01'0 0.0
2018-Jul-14 22:26N 30°39' E 122°01'0 0.0
2018-Jul-14 21:59N 30°39' E 122°01'0 0.0
2018-Jul-14 21:29N 30°39' E 122°01'0 0.0
2018-Jul-14 20:02N 30°39' E 122°01'0 0.1
2018-Jul-14 19:50N 30°39' E 122°01'0 0.0
2018-Jul-14 19:26N 30°39' E 122°01'0 0.0
2018-Jul-14 18:56N 30°39' E 122°01'0 0.0
2018-Jul-14 18:29N 30°39' E 122°01'0 0.0
2018-Jul-14 17:56N 30°39' E 122°01'0 0.0
2018-Jul-14 17:29N 30°39' E 122°01'0 0.0
2018-Jul-14 16:59N 30°39' E 122°01'0 0.0
2018-Jul-14 16:29N 30°39' E 122°01'0 0.0
2018-Jul-14 15:59N 30°39' E 122°01'0 0.0
2018-Jul-14 15:29N 30°39' E 122°01'0 0.0
2018-Jul-14 14:59N 30°39' E 122°01'0 0.0
2018-Jul-14 13:41N 30°39' E 122°01'0 0.0
2018-Jul-14 13:26N 30°39' E 122°01'0 0.0
2018-Jul-14 12:59N 30°39' E 122°01'0 0.0
2018-Jul-14 12:29N 30°39' E 122°01'0 0.0
2018-Jul-14 11:59N 30°39' E 122°01'0 0.0
2018-Jul-14 11:26N 30°39' E 122°01'0 0.1
2018-Jul-14 10:59N 30°39' E 122°01'0 0.1
2018-Jul-14 10:29N 30°39' E 122°01'0 0.0
2018-Jul-14 09:59N 30°39' E 122°01'0 0.0
2018-Jul-14 09:29N 30°39' E 122°01'0 0.0
2018-Jul-14 08:59N 30°39' E 122°01'0 0.0
2018-Jul-14 08:29N 30°39' E 122°01'0 0.0
2018-Jul-14 07:56N 30°39' E 122°01'0 0.0
2018-Jul-14 07:29N 30°39' E 122°01'1 1.7
2018-Jul-14 07:00N 30°39' E 122°02'4 8.2
2018-Jul-14 06:28N 30°36' E 122°06'713.3
2018-Jul-14 05:57N 30°34' E 122°13'4 7.3
2018-Jul-14 05:28N 30°34' E 122°17'3 5.6
2018-Jul-14 04:56N 30°33' E 122°21'911.4
2018-Jul-14 04:07N 30°34' E 122°32'113.2
2018-Jul-14 04:00N 30°34' E 122°33'713.4
2018-Jul-14 03:30N 30°35' E 122°41'49111.0
2018-Jul-12 06:54N 38°35' E 120°37'7 9.7
2018-Jul-12 06:12N 38°36' E 120°28'  
Track history (hours):
 
Tides and Currents Weather Stations Pressure Air Temp Water Temp Dewpoint Dewpoint Depression Visibility Wind Speed Wind Dir Waves Ship Positions

Maersk Leon

Last reported at 2018-Jul-20 14:00 UTC. Time now 2018-Jul-23 06:10 UTC.
Position N 23°16' E 117°32'.

Length 300 m; draft 10.2 m.

Type: Cargo ship. MMSI: 566405000.

Date/timePositionNaut miles runAvg speedWind from/ knotsBaromVisibWave heightAir tempDewpointWater temp
2018-Jul-20 14:00N 23°16' E 117°32'713.4
2018-Jul-20 13:30N 23°20' E 117°37'713.9
2018-Jul-20 13:00N 23°24' E 117°43'713.9
2018-Jul-20 12:30N 23°28' E 117°49'713.8
2018-Jul-20 12:00N 23°32' E 117°55'713.7
2018-Jul-20 11:30N 23°37' E 118°01'713.7
2018-Jul-20 11:00N 23°41' E 118°07'713.9
2018-Jul-20 10:30N 23°46' E 118°12'714.1
2018-Jul-20 10:00N 23°50' E 118°18'713.8
2018-Jul-20 09:29N 23°55' E 118°24'713.8
2018-Jul-20 08:59N 23°60' E 118°30'713.9
2018-Jul-20 08:30N 24°04' E 118°36'1013.7
2018-Jul-20 07:48N 24°10' E 118°43'413.4
2018-Jul-20 07:30N 24°13' E 118°46'713.5
2018-Jul-20 07:00N 24°18' E 118°51'713.7
2018-Jul-20 06:30N 24°22' E 118°58'713.8
2018-Jul-20 06:00N 24°26' E 119°04'  
2018-Jul-17 08:57N 30°32' E 122°21'810.6
2018-Jul-17 08:09N 30°33' E 122°12'414.4
2018-Jul-17 07:53N 30°35' E 122°08'3 6.0
2018-Jul-17 07:27N 30°36' E 122°05'0 0.0
2018-Jul-16 20:10N 30°36' E 122°05'0 1.4
2018-Jul-16 19:54N 30°36' E 122°05'1 1.6
2018-Jul-16 19:30N 30°37' E 122°04'1 1.5
2018-Jul-16 18:48N 30°36' E 122°05'2 6.2
2018-Jul-16 18:30N 30°35' E 122°07'5 9.2
2018-Jul-16 17:57N 30°34' E 122°12'5 7.9
2018-Jul-16 17:23N 30°33' E 122°18'3 7.6
2018-Jul-16 17:00N 30°33' E 122°21'9 7.5
2018-Jul-16 15:52N 30°29' E 122°30'7 0.2
2018-Jul-15 08:26N 30°32' E 122°23'612.1
2018-Jul-15 07:58N 30°33' E 122°17'713.2
2018-Jul-15 07:26N 30°34' E 122°09'612.6
2018-Jul-15 07:00N 30°37' E 122°03'3 1.7
2018-Jul-15 05:17N 30°39' E 122°01'0 0.0
2018-Jul-15 04:59N 30°39' E 122°01'0 0.0
2018-Jul-15 04:29N 30°39' E 122°01'0 0.0
2018-Jul-15 03:59N 30°39' E 122°01'0 0.0
2018-Jul-15 03:29N 30°39' E 122°01'0 0.0
2018-Jul-15 01:17N 30°39' E 122°01'0 0.0
2018-Jul-15 00:38N 30°39' E 122°01'0 0.0
2018-Jul-15 00:26N 30°39' E 122°01'0 0.0
2018-Jul-14 23:56N 30°39' E 122°01'0 0.0
2018-Jul-14 23:26N 30°39' E 122°01'0 0.0
2018-Jul-14 22:56N 30°39' E 122°01'0 0.0
2018-Jul-14 22:26N 30°39' E 122°01'0 0.0
2018-Jul-14 21:59N 30°39' E 122°01'0 0.0
2018-Jul-14 21:29N 30°39' E 122°01'0 0.0
2018-Jul-14 20:02N 30°39' E 122°01'0 0.1
2018-Jul-14 19:50N 30°39' E 122°01'0 0.0
2018-Jul-14 19:26N 30°39' E 122°01'0 0.0
2018-Jul-14 18:56N 30°39' E 122°01'0 0.0
2018-Jul-14 18:29N 30°39' E 122°01'0 0.0
2018-Jul-14 17:56N 30°39' E 122°01'0 0.0
2018-Jul-14 17:29N 30°39' E 122°01'0 0.0
2018-Jul-14 16:59N 30°39' E 122°01'0 0.0
2018-Jul-14 16:29N 30°39' E 122°01'0 0.0
2018-Jul-14 15:59N 30°39' E 122°01'0 0.0
2018-Jul-14 15:29N 30°39' E 122°01'0 0.0
2018-Jul-14 14:59N 30°39' E 122°01'0 0.0
2018-Jul-14 13:41N 30°39' E 122°01'0 0.0
2018-Jul-14 13:26N 30°39' E 122°01'0 0.0
2018-Jul-14 12:59N 30°39' E 122°01'0 0.0
2018-Jul-14 12:29N 30°39' E 122°01'0 0.0
2018-Jul-14 11:59N 30°39' E 122°01'0 0.0
2018-Jul-14 11:26N 30°39' E 122°01'0 0.1
2018-Jul-14 10:59N 30°39' E 122°01'0 0.1
2018-Jul-14 10:29N 30°39' E 122°01'0 0.0
2018-Jul-14 09:59N 30°39' E 122°01'0 0.0
2018-Jul-14 09:29N 30°39' E 122°01'0 0.0
2018-Jul-14 08:59N 30°39' E 122°01'0 0.0
2018-Jul-14 08:29N 30°39' E 122°01'0 0.0
2018-Jul-14 07:56N 30°39' E 122°01'0 0.0
2018-Jul-14 07:29N 30°39' E 122°01'1 1.7
2018-Jul-14 07:00N 30°39' E 122°02'4 8.2
2018-Jul-14 06:28N 30°36' E 122°06'713.3
2018-Jul-14 05:57N 30°34' E 122°13'4 7.3
2018-Jul-14 05:28N 30°34' E 122°17'3 5.6
2018-Jul-14 04:56N 30°33' E 122°21'911.4
2018-Jul-14 04:07N 30°34' E 122°32'113.2
2018-Jul-14 04:00N 30°34' E 122°33'713.4
2018-Jul-14 03:30N 30°35' E 122°41'49111.0
2018-Jul-12 06:54N 38°35' E 120°37'7 9.7
2018-Jul-12 06:12N 38°36' E 120°28'  

Dump ship's entire track history